sensor_id;sensor_type;location;lat;lon;timestamp;P1;durP1;ratioP1;P2;durP2;ratioP2
7460;SDS011;6757;52.258;12.840;2022-08-21T00:00:12;10.05;;;3.60;;
7460;SDS011;6757;52.258;12.840;2022-08-21T00:02:44;8.25;;;3.72;;
7460;SDS011;6757;52.258;12.840;2022-08-21T00:07:41;10.52;;;3.25;;
7460;SDS011;6757;52.258;12.840;2022-08-21T00:10:09;9.55;;;3.63;;
7460;SDS011;6757;52.258;12.840;2022-08-21T00:12:37;9.70;;;3.60;;
7460;SDS011;6757;52.258;12.840;2022-08-21T00:15:06;8.25;;;3.45;;
7460;SDS011;6757;52.258;12.840;2022-08-21T00:17:35;9.85;;;3.90;;
7460;SDS011;6757;52.258;12.840;2022-08-21T00:20:03;6.75;;;3.20;;
7460;SDS011;6757;52.258;12.840;2022-08-21T00:22:31;9.57;;;3.90;;
7460;SDS011;6757;52.258;12.840;2022-08-21T00:24:58;7.63;;;2.88;;
7460;SDS011;6757;52.258;12.840;2022-08-21T00:27:26;7.50;;;3.22;;
7460;SDS011;6757;52.258;12.840;2022-08-21T00:29:53;7.93;;;3.28;;
7460;SDS011;6757;52.258;12.840;2022-08-21T00:32:21;7.97;;;3.47;;
7460;SDS011;6757;52.258;12.840;2022-08-21T00:34:48;9.65;;;3.70;;
7460;SDS011;6757;52.258;12.840;2022-08-21T00:37:16;5.57;;;2.95;;
7460;SDS011;6757;52.258;12.840;2022-08-21T00:39:43;9.02;;;3.70;;
7460;SDS011;6757;52.258;12.840;2022-08-21T00:42:11;8.10;;;3.13;;
7460;SDS011;6757;52.258;12.840;2022-08-21T00:44:41;6.15;;;3.30;;
7460;SDS011;6757;52.258;12.840;2022-08-21T00:47:08;7.35;;;3.30;;
7460;SDS011;6757;52.258;12.840;2022-08-21T00:49:36;9.50;;;3.58;;
7460;SDS011;6757;52.258;12.840;2022-08-21T00:52:03;8.02;;;3.20;;
7460;SDS011;6757;52.258;12.840;2022-08-21T00:54:33;8.32;;;3.50;;
7460;SDS011;6757;52.258;12.840;2022-08-21T00:57:03;8.02;;;3.45;;
7460;SDS011;6757;52.258;12.840;2022-08-21T00:59:35;9.57;;;3.33;;
7460;SDS011;6757;52.258;12.840;2022-08-21T01:02:06;8.18;;;3.17;;
7460;SDS011;6757;52.258;12.840;2022-08-21T01:04:35;6.72;;;3.20;;
7460;SDS011;6757;52.258;12.840;2022-08-21T01:07:02;6.80;;;3.03;;
7460;SDS011;6757;52.258;12.840;2022-08-21T01:09:29;6.32;;;3.03;;
7460;SDS011;6757;52.258;12.840;2022-08-21T01:11:56;6.38;;;2.63;;
7460;SDS011;6757;52.258;12.840;2022-08-21T01:14:23;6.95;;;3.10;;
7460;SDS011;6757;52.258;12.840;2022-08-21T01:16:51;5.97;;;2.80;;
7460;SDS011;6757;52.258;12.840;2022-08-21T01:19:21;5.05;;;2.60;;
7460;SDS011;6757;52.258;12.840;2022-08-21T01:21:50;6.10;;;2.50;;
7460;SDS011;6757;52.258;12.840;2022-08-21T01:24:18;5.65;;;2.67;;
7460;SDS011;6757;52.258;12.840;2022-08-21T01:26:46;6.93;;;2.70;;
7460;SDS011;6757;52.258;12.840;2022-08-21T01:29:15;5.05;;;2.50;;
7460;SDS011;6757;52.258;12.840;2022-08-21T01:31:52;7.18;;;2.85;;
7460;SDS011;6757;52.258;12.840;2022-08-21T01:34:20;6.75;;;2.92;;
7460;SDS011;6757;52.258;12.840;2022-08-21T01:36:47;4.32;;;2.50;;
7460;SDS011;6757;52.258;12.840;2022-08-21T01:39:15;7.85;;;2.97;;
7460;SDS011;6757;52.258;12.840;2022-08-21T01:41:43;5.63;;;2.60;;
7460;SDS011;6757;52.258;12.840;2022-08-21T01:44:10;3.65;;;2.45;;
7460;SDS011;6757;52.258;12.840;2022-08-21T01:46:36;4.60;;;2.40;;
7460;SDS011;6757;52.258;12.840;2022-08-21T01:49:04;6.32;;;2.55;;
7460;SDS011;6757;52.258;12.840;2022-08-21T01:51:32;3.35;;;2.20;;
7460;SDS011;6757;52.258;12.840;2022-08-21T01:53:59;3.97;;;2.50;;
7460;SDS011;6757;52.258;12.840;2022-08-21T01:56:27;4.07;;;2.22;;
7460;SDS011;6757;52.258;12.840;2022-08-21T01:58:54;4.40;;;2.20;;
7460;SDS011;6757;52.258;12.840;2022-08-21T02:01:21;4.38;;;2.33;;
7460;SDS011;6757;52.258;12.840;2022-08-21T02:03:48;5.88;;;2.42;;
7460;SDS011;6757;52.258;12.840;2022-08-21T02:06:15;4.88;;;2.40;;
7460;SDS011;6757;52.258;12.840;2022-08-21T02:08:43;5.35;;;2.85;;
7460;SDS011;6757;52.258;12.840;2022-08-21T02:11:10;3.72;;;2.55;;
7460;SDS011;6757;52.258;12.840;2022-08-21T02:13:38;5.50;;;2.47;;
7460;SDS011;6757;52.258;12.840;2022-08-21T02:16:06;5.25;;;2.40;;
7460;SDS011;6757;52.258;12.840;2022-08-21T02:18:33;4.63;;;2.60;;
7460;SDS011;6757;52.258;12.840;2022-08-21T02:21:00;6.00;;;2.40;;
7460;SDS011;6757;52.258;12.840;2022-08-21T02:23:27;2.75;;;2.15;;
7460;SDS011;6757;52.258;12.840;2022-08-21T02:25:54;5.45;;;2.42;;
7460;SDS011;6757;52.258;12.840;2022-08-21T02:28:23;4.55;;;2.30;;
7460;SDS011;6757;52.258;12.840;2022-08-21T02:30:52;4.45;;;2.38;;
7460;SDS011;6757;52.258;12.840;2022-08-21T02:33:20;5.63;;;2.63;;
7460;SDS011;6757;52.258;12.840;2022-08-21T02:35:48;5.70;;;2.63;;
7460;SDS011;6757;52.258;12.840;2022-08-21T02:38:17;5.00;;;2.70;;
7460;SDS011;6757;52.258;12.840;2022-08-21T02:40:50;4.53;;;2.20;;
7460;SDS011;6757;52.258;12.840;2022-08-21T02:43:19;3.88;;;2.35;;
7460;SDS011;6757;52.258;12.840;2022-08-21T02:45:48;3.35;;;2.20;;
7460;SDS011;6757;52.258;12.840;2022-08-21T02:48:18;6.47;;;2.42;;
7460;SDS011;6757;52.258;12.840;2022-08-21T02:50:50;3.67;;;2.28;;
7460;SDS011;6757;52.258;12.840;2022-08-21T02:53:19;2.95;;;2.00;;
7460;SDS011;6757;52.258;12.840;2022-08-21T02:55:48;5.53;;;2.40;;
7460;SDS011;6757;52.258;12.840;2022-08-21T02:58:22;4.22;;;2.20;;
7460;SDS011;6757;52.258;12.840;2022-08-21T03:00:55;4.18;;;2.47;;
7460;SDS011;6757;52.258;12.840;2022-08-21T03:03:25;2.63;;;1.90;;
7460;SDS011;6757;52.258;12.840;2022-08-21T03:05:53;2.55;;;2.15;;
7460;SDS011;6757;52.258;12.840;2022-08-21T03:08:20;4.85;;;2.30;;
7460;SDS011;6757;52.258;12.840;2022-08-21T03:10:49;4.18;;;2.38;;
7460;SDS011;6757;52.258;12.840;2022-08-21T03:13:17;5.45;;;2.38;;
7460;SDS011;6757;52.258;12.840;2022-08-21T03:15:46;2.83;;;2.30;;
7460;SDS011;6757;52.258;12.840;2022-08-21T03:18:15;3.75;;;2.30;;
7460;SDS011;6757;52.258;12.840;2022-08-21T03:20:43;4.03;;;2.35;;
7460;SDS011;6757;52.258;12.840;2022-08-21T03:23:11;5.10;;;2.20;;
7460;SDS011;6757;52.258;12.840;2022-08-21T03:25:38;4.53;;;2.40;;
7460;SDS011;6757;52.258;12.840;2022-08-21T03:28:10;2.42;;;2.00;;
7460;SDS011;6757;52.258;12.840;2022-08-21T03:30:39;5.32;;;2.40;;
7460;SDS011;6757;52.258;12.840;2022-08-21T03:33:06;2.55;;;1.80;;
7460;SDS011;6757;52.258;12.840;2022-08-21T03:35:33;4.78;;;2.15;;
7460;SDS011;6757;52.258;12.840;2022-08-21T03:38:02;4.00;;;2.38;;
7460;SDS011;6757;52.258;12.840;2022-08-21T03:40:29;3.55;;;2.15;;
7460;SDS011;6757;52.258;12.840;2022-08-21T03:42:56;3.53;;;2.17;;
7460;SDS011;6757;52.258;12.840;2022-08-21T03:45:24;3.53;;;2.20;;
7460;SDS011;6757;52.258;12.840;2022-08-21T03:47:52;4.50;;;2.30;;
7460;SDS011;6757;52.258;12.840;2022-08-21T03:50:20;3.65;;;2.00;;
7460;SDS011;6757;52.258;12.840;2022-08-21T03:52:48;3.97;;;2.30;;
7460;SDS011;6757;52.258;12.840;2022-08-21T03:55:17;4.22;;;2.10;;
7460;SDS011;6757;52.258;12.840;2022-08-21T03:57:44;4.05;;;2.60;;
7460;SDS011;6757;52.258;12.840;2022-08-21T04:00:11;6.32;;;2.58;;
7460;SDS011;6757;52.258;12.840;2022-08-21T04:02:40;3.05;;;2.08;;
7460;SDS011;6757;52.258;12.840;2022-08-21T04:05:08;5.25;;;2.67;;
7460;SDS011;6757;52.258;12.840;2022-08-21T04:07:36;2.35;;;2.10;;
7460;SDS011;6757;52.258;12.840;2022-08-21T04:10:04;3.50;;;2.03;;
7460;SDS011;6757;52.258;12.840;2022-08-21T04:12:34;4.30;;;2.13;;
7460;SDS011;6757;52.258;12.840;2022-08-21T04:15:01;4.15;;;2.22;;
7460;SDS011;6757;52.258;12.840;2022-08-21T04:17:28;4.95;;;2.40;;
7460;SDS011;6757;52.258;12.840;2022-08-21T04:19:55;2.88;;;1.98;;
7460;SDS011;6757;52.258;12.840;2022-08-21T04:22:22;5.30;;;2.22;;
7460;SDS011;6757;52.258;12.840;2022-08-21T04:24:49;5.53;;;2.42;;
7460;SDS011;6757;52.258;12.840;2022-08-21T04:27:15;3.30;;;2.20;;
7460;SDS011;6757;52.258;12.840;2022-08-21T04:29:44;6.72;;;2.20;;
7460;SDS011;6757;52.258;12.840;2022-08-21T04:32:10;5.60;;;2.10;;
7460;SDS011;6757;52.258;12.840;2022-08-21T04:34:37;3.40;;;2.33;;
7460;SDS011;6757;52.258;12.840;2022-08-21T04:37:04;5.50;;;2.30;;
7460;SDS011;6757;52.258;12.840;2022-08-21T04:39:31;3.78;;;2.28;;
7460;SDS011;6757;52.258;12.840;2022-08-21T04:41:58;2.17;;;1.63;;
7460;SDS011;6757;52.258;12.840;2022-08-21T04:44:25;5.55;;;2.35;;
7460;SDS011;6757;52.258;12.840;2022-08-21T04:46:53;2.15;;;1.98;;
7460;SDS011;6757;52.258;12.840;2022-08-21T04:49:20;3.22;;;2.20;;
7460;SDS011;6757;52.258;12.840;2022-08-21T04:51:47;4.72;;;2.50;;
7460;SDS011;6757;52.258;12.840;2022-08-21T04:54:15;4.55;;;2.30;;
7460;SDS011;6757;52.258;12.840;2022-08-21T04:56:48;5.20;;;2.28;;
7460;SDS011;6757;52.258;12.840;2022-08-21T04:59:20;2.58;;;1.77;;
7460;SDS011;6757;52.258;12.840;2022-08-21T05:01:51;4.60;;;2.15;;
7460;SDS011;6757;52.258;12.840;2022-08-21T05:04:22;5.32;;;2.55;;
7460;SDS011;6757;52.258;12.840;2022-08-21T05:06:53;3.50;;;2.35;;
7460;SDS011;6757;52.258;12.840;2022-08-21T05:09:23;3.55;;;2.28;;
7460;SDS011;6757;52.258;12.840;2022-08-21T05:11:51;4.50;;;2.17;;
7460;SDS011;6757;52.258;12.840;2022-08-21T05:14:18;5.13;;;2.20;;
7460;SDS011;6757;52.258;12.840;2022-08-21T05:16:45;2.33;;;1.98;;
7460;SDS011;6757;52.258;12.840;2022-08-21T05:19:14;3.60;;;2.63;;
7460;SDS011;6757;52.258;12.840;2022-08-21T05:21:42;5.78;;;2.55;;
7460;SDS011;6757;52.258;12.840;2022-08-21T05:24:10;3.40;;;1.98;;
7460;SDS011;6757;52.258;12.840;2022-08-21T05:26:37;4.55;;;2.08;;
7460;SDS011;6757;52.258;12.840;2022-08-21T05:29:05;4.20;;;2.10;;
7460;SDS011;6757;52.258;12.840;2022-08-21T05:31:32;4.93;;;2.30;;
7460;SDS011;6757;52.258;12.840;2022-08-21T05:33:59;4.15;;;2.00;;
7460;SDS011;6757;52.258;12.840;2022-08-21T05:36:27;5.35;;;2.47;;
7460;SDS011;6757;52.258;12.840;2022-08-21T05:38:55;6.07;;;2.67;;
7460;SDS011;6757;52.258;12.840;2022-08-21T05:41:21;4.90;;;2.22;;
7460;SDS011;6757;52.258;12.840;2022-08-21T05:43:48;5.57;;;2.63;;
7460;SDS011;6757;52.258;12.840;2022-08-21T05:46:15;2.70;;;2.00;;
7460;SDS011;6757;52.258;12.840;2022-08-21T05:48:42;3.15;;;2.25;;
7460;SDS011;6757;52.258;12.840;2022-08-21T05:51:09;3.10;;;2.10;;
7460;SDS011;6757;52.258;12.840;2022-08-21T05:53:44;3.13;;;2.00;;
7460;SDS011;6757;52.258;12.840;2022-08-21T05:56:12;4.93;;;2.58;;
7460;SDS011;6757;52.258;12.840;2022-08-21T05:58:40;3.83;;;2.42;;
7460;SDS011;6757;52.258;12.840;2022-08-21T06:01:08;3.90;;;2.17;;
7460;SDS011;6757;52.258;12.840;2022-08-21T06:03:36;2.28;;;1.77;;
7460;SDS011;6757;52.258;12.840;2022-08-21T06:06:05;4.47;;;2.08;;
7460;SDS011;6757;52.258;12.840;2022-08-21T06:08:33;3.83;;;2.35;;
7460;SDS011;6757;52.258;12.840;2022-08-21T06:11:02;4.65;;;2.42;;
7460;SDS011;6757;52.258;12.840;2022-08-21T06:13:31;4.57;;;2.45;;
7460;SDS011;6757;52.258;12.840;2022-08-21T06:16:02;5.78;;;2.20;;
7460;SDS011;6757;52.258;12.840;2022-08-21T06:18:33;4.20;;;2.17;;
7460;SDS011;6757;52.258;12.840;2022-08-21T06:21:01;5.10;;;2.25;;
7460;SDS011;6757;52.258;12.840;2022-08-21T06:23:28;4.97;;;2.40;;
7460;SDS011;6757;52.258;12.840;2022-08-21T06:25:56;7.63;;;2.45;;
7460;SDS011;6757;52.258;12.840;2022-08-21T06:28:25;3.53;;;1.90;;
7460;SDS011;6757;52.258;12.840;2022-08-21T06:30:52;4.32;;;2.00;;
7460;SDS011;6757;52.258;12.840;2022-08-21T06:33:19;3.85;;;2.00;;
7460;SDS011;6757;52.258;12.840;2022-08-21T06:35:46;2.75;;;2.35;;
7460;SDS011;6757;52.258;12.840;2022-08-21T06:38:13;4.25;;;2.15;;
7460;SDS011;6757;52.258;12.840;2022-08-21T06:40:40;4.22;;;2.22;;
7460;SDS011;6757;52.258;12.840;2022-08-21T06:43:08;5.28;;;2.42;;
7460;SDS011;6757;52.258;12.840;2022-08-21T06:45:38;3.30;;;2.42;;
7460;SDS011;6757;52.258;12.840;2022-08-21T06:48:05;3.05;;;1.92;;
7460;SDS011;6757;52.258;12.840;2022-08-21T06:50:33;4.40;;;2.45;;
7460;SDS011;6757;52.258;12.840;2022-08-21T06:53:01;4.10;;;2.33;;
7460;SDS011;6757;52.258;12.840;2022-08-21T06:55:31;4.25;;;2.10;;
7460;SDS011;6757;52.258;12.840;2022-08-21T06:57:58;2.72;;;2.00;;
7460;SDS011;6757;52.258;12.840;2022-08-21T07:00:25;4.47;;;2.10;;
7460;SDS011;6757;52.258;12.840;2022-08-21T07:02:54;3.15;;;2.10;;
7460;SDS011;6757;52.258;12.840;2022-08-21T07:05:21;3.72;;;2.15;;
7460;SDS011;6757;52.258;12.840;2022-08-21T07:07:50;5.15;;;2.40;;
7460;SDS011;6757;52.258;12.840;2022-08-21T07:10:17;4.82;;;2.25;;
7460;SDS011;6757;52.258;12.840;2022-08-21T07:12:44;2.70;;;2.20;;
7460;SDS011;6757;52.258;12.840;2022-08-21T07:15:11;3.80;;;2.20;;
7460;SDS011;6757;52.258;12.840;2022-08-21T07:17:39;6.43;;;2.22;;
7460;SDS011;6757;52.258;12.840;2022-08-21T07:20:08;4.10;;;2.28;;
7460;SDS011;6757;52.258;12.840;2022-08-21T07:22:36;3.92;;;2.13;;
7460;SDS011;6757;52.258;12.840;2022-08-21T07:25:05;3.10;;;2.00;;
7460;SDS011;6757;52.258;12.840;2022-08-21T07:27:33;3.28;;;2.00;;
7460;SDS011;6757;52.258;12.840;2022-08-21T07:30:00;3.95;;;2.15;;
7460;SDS011;6757;52.258;12.840;2022-08-21T07:32:27;3.50;;;2.05;;
7460;SDS011;6757;52.258;12.840;2022-08-21T07:34:54;5.80;;;2.08;;
7460;SDS011;6757;52.258;12.840;2022-08-21T07:37:22;3.22;;;1.90;;
7460;SDS011;6757;52.258;12.840;2022-08-21T07:39:50;2.58;;;1.75;;
7460;SDS011;6757;52.258;12.840;2022-08-21T07:42:17;3.58;;;1.95;;
7460;SDS011;6757;52.258;12.840;2022-08-21T07:44:43;3.30;;;2.25;;
7460;SDS011;6757;52.258;12.840;2022-08-21T07:47:10;3.20;;;2.22;;
7460;SDS011;6757;52.258;12.840;2022-08-21T07:49:37;3.88;;;1.98;;
7460;SDS011;6757;52.258;12.840;2022-08-21T07:52:04;1.63;;;1.50;;
7460;SDS011;6757;52.258;12.840;2022-08-21T07:54:33;3.00;;;1.85;;
7460;SDS011;6757;52.258;12.840;2022-08-21T07:57:00;5.57;;;1.92;;
7460;SDS011;6757;52.258;12.840;2022-08-21T07:59:27;2.45;;;1.70;;
7460;SDS011;6757;52.258;12.840;2022-08-21T08:01:55;2.15;;;1.80;;
7460;SDS011;6757;52.258;12.840;2022-08-21T08:04:22;5.40;;;2.25;;
7460;SDS011;6757;52.258;12.840;2022-08-21T08:06:49;2.38;;;1.85;;
7460;SDS011;6757;52.258;12.840;2022-08-21T08:09:16;2.55;;;1.98;;
7460;SDS011;6757;52.258;12.840;2022-08-21T08:11:44;2.10;;;1.85;;
7460;SDS011;6757;52.258;12.840;2022-08-21T08:14:11;3.05;;;1.88;;
7460;SDS011;6757;52.258;12.840;2022-08-21T08:16:40;3.30;;;1.73;;
7460;SDS011;6757;52.258;12.840;2022-08-21T08:19:08;2.78;;;1.60;;
7460;SDS011;6757;52.258;12.840;2022-08-21T08:21:36;3.28;;;1.63;;
7460;SDS011;6757;52.258;12.840;2022-08-21T08:24:03;3.55;;;1.88;;
7460;SDS011;6757;52.258;12.840;2022-08-21T08:26:31;3.92;;;2.03;;
7460;SDS011;6757;52.258;12.840;2022-08-21T08:28:59;2.50;;;1.63;;
7460;SDS011;6757;52.258;12.840;2022-08-21T08:31:26;4.65;;;1.58;;
7460;SDS011;6757;52.258;12.840;2022-08-21T08:33:53;3.25;;;1.70;;
7460;SDS011;6757;52.258;12.840;2022-08-21T08:36:20;1.90;;;1.80;;
7460;SDS011;6757;52.258;12.840;2022-08-21T08:38:59;2.78;;;1.83;;
7460;SDS011;6757;52.258;12.840;2022-08-21T08:41:26;4.05;;;1.80;;
7460;SDS011;6757;52.258;12.840;2022-08-21T08:43:57;3.17;;;1.80;;
7460;SDS011;6757;52.258;12.840;2022-08-21T08:46:31;3.25;;;1.83;;
7460;SDS011;6757;52.258;12.840;2022-08-21T08:49:05;1.80;;;1.60;;
7460;SDS011;6757;52.258;12.840;2022-08-21T08:51:39;2.83;;;1.73;;
7460;SDS011;6757;52.258;12.840;2022-08-21T08:54:13;1.77;;;1.55;;
7460;SDS011;6757;52.258;12.840;2022-08-21T08:56:43;2.70;;;1.60;;
7460;SDS011;6757;52.258;12.840;2022-08-21T08:59:15;5.78;;;1.83;;
7460;SDS011;6757;52.258;12.840;2022-08-21T09:01:45;2.08;;;1.73;;
7460;SDS011;6757;52.258;12.840;2022-08-21T09:04:12;2.00;;;1.60;;
7460;SDS011;6757;52.258;12.840;2022-08-21T09:06:55;2.42;;;2.08;;
7460;SDS011;6757;52.258;12.840;2022-08-21T09:09:39;3.08;;;1.85;;
7460;SDS011;6757;52.258;12.840;2022-08-21T09:12:25;2.05;;;1.55;;
7460;SDS011;6757;52.258;12.840;2022-08-21T09:15:03;2.05;;;1.60;;
7460;SDS011;6757;52.258;12.840;2022-08-21T09:17:47;3.63;;;1.70;;
7460;SDS011;6757;52.258;12.840;2022-08-21T09:20:53;3.00;;;1.63;;
7460;SDS011;6757;52.258;12.840;2022-08-21T09:23:36;1.92;;;1.55;;
7460;SDS011;6757;52.258;12.840;2022-08-21T09:26:14;3.95;;;1.60;;
7460;SDS011;6757;52.258;12.840;2022-08-21T09:28:43;1.90;;;1.80;;
7460;SDS011;6757;52.258;12.840;2022-08-21T09:31:16;2.53;;;1.60;;
7460;SDS011;6757;52.258;12.840;2022-08-21T09:33:50;3.25;;;1.75;;
7460;SDS011;6757;52.258;12.840;2022-08-21T09:36:24;3.20;;;1.90;;
7460;SDS011;6757;52.258;12.840;2022-08-21T09:38:59;2.70;;;1.65;;
7460;SDS011;6757;52.258;12.840;2022-08-21T09:41:29;7.57;;;1.90;;
7460;SDS011;6757;52.258;12.840;2022-08-21T09:44:00;3.72;;;2.00;;
7460;SDS011;6757;52.258;12.840;2022-08-21T09:46:30;3.58;;;1.85;;
7460;SDS011;6757;52.258;12.840;2022-08-21T09:48:58;2.65;;;1.75;;
7460;SDS011;6757;52.258;12.840;2022-08-21T09:51:27;3.42;;;1.92;;
7460;SDS011;6757;52.258;12.840;2022-08-21T09:53:57;4.10;;;1.88;;
7460;SDS011;6757;52.258;12.840;2022-08-21T09:56:51;3.33;;;1.95;;
7460;SDS011;6757;52.258;12.840;2022-08-21T09:59:39;4.13;;;1.80;;
7460;SDS011;6757;52.258;12.840;2022-08-21T10:02:22;4.25;;;2.25;;
7460;SDS011;6757;52.258;12.840;2022-08-21T10:04:53;2.63;;;1.70;;
7460;SDS011;6757;52.258;12.840;2022-08-21T10:07:23;1.80;;;1.70;;
7460;SDS011;6757;52.258;12.840;2022-08-21T10:10:00;1.98;;;1.63;;
7460;SDS011;6757;52.258;12.840;2022-08-21T10:12:33;2.15;;;1.75;;
7460;SDS011;6757;52.258;12.840;2022-08-21T10:15:13;2.28;;;1.85;;
7460;SDS011;6757;52.258;12.840;2022-08-21T10:17:52;3.65;;;1.80;;
7460;SDS011;6757;52.258;12.840;2022-08-21T10:20:32;3.55;;;1.77;;
7460;SDS011;6757;52.258;12.840;2022-08-21T10:23:20;2.70;;;1.45;;
7460;SDS011;6757;52.258;12.840;2022-08-21T10:26:02;3.75;;;1.90;;
7460;SDS011;6757;52.258;12.840;2022-08-21T10:31:12;3.45;;;1.83;;
7460;SDS011;6757;52.258;12.840;2022-08-21T10:33:51;3.03;;;1.90;;
7460;SDS011;6757;52.258;12.840;2022-08-21T10:36:32;5.28;;;1.92;;
7460;SDS011;6757;52.258;12.840;2022-08-21T10:39:17;4.03;;;1.85;;
7460;SDS011;6757;52.258;12.840;2022-08-21T10:41:57;3.65;;;1.83;;
7460;SDS011;6757;52.258;12.840;2022-08-21T10:44:40;6.13;;;2.10;;
7460;SDS011;6757;52.258;12.840;2022-08-21T10:47:19;3.40;;;2.00;;
7460;SDS011;6757;52.258;12.840;2022-08-21T10:50:00;3.70;;;2.25;;
7460;SDS011;6757;52.258;12.840;2022-08-21T10:52:43;2.75;;;1.83;;
7460;SDS011;6757;52.258;12.840;2022-08-21T10:55:27;5.15;;;2.08;;
7460;SDS011;6757;52.258;12.840;2022-08-21T10:58:01;6.30;;;2.28;;
7460;SDS011;6757;52.258;12.840;2022-08-21T11:00:35;4.88;;;2.03;;
7460;SDS011;6757;52.258;12.840;2022-08-21T11:03:11;4.95;;;1.90;;
7460;SDS011;6757;52.258;12.840;2022-08-21T11:05:44;3.45;;;2.00;;
7460;SDS011;6757;52.258;12.840;2022-08-21T11:08:18;5.60;;;1.80;;
7460;SDS011;6757;52.258;12.840;2022-08-21T11:10:51;2.00;;;1.73;;
7460;SDS011;6757;52.258;12.840;2022-08-21T11:13:24;5.18;;;1.98;;
7460;SDS011;6757;52.258;12.840;2022-08-21T11:16:00;3.10;;;1.90;;
7460;SDS011;6757;52.258;12.840;2022-08-21T11:18:34;3.08;;;1.77;;
7460;SDS011;6757;52.258;12.840;2022-08-21T11:21:09;2.05;;;1.90;;
7460;SDS011;6757;52.258;12.840;2022-08-21T11:24:02;4.45;;;2.20;;
7460;SDS011;6757;52.258;12.840;2022-08-21T11:26:41;3.47;;;1.88;;
7460;SDS011;6757;52.258;12.840;2022-08-21T11:29:16;3.22;;;1.70;;
7460;SDS011;6757;52.258;12.840;2022-08-21T11:31:56;5.28;;;2.10;;
7460;SDS011;6757;52.258;12.840;2022-08-21T11:34:38;3.63;;;1.80;;
7460;SDS011;6757;52.258;12.840;2022-08-21T11:37:30;2.13;;;1.75;;
7460;SDS011;6757;52.258;12.840;2022-08-21T11:40:12;5.30;;;2.13;;
7460;SDS011;6757;52.258;12.840;2022-08-21T11:42:50;2.95;;;1.90;;
7460;SDS011;6757;52.258;12.840;2022-08-21T11:45:31;1.95;;;1.67;;
7460;SDS011;6757;52.258;12.840;2022-08-21T11:48:11;3.10;;;1.90;;
7460;SDS011;6757;52.258;12.840;2022-08-21T11:50:46;4.47;;;2.25;;
7460;SDS011;6757;52.258;12.840;2022-08-21T11:53:16;6.05;;;2.08;;
7460;SDS011;6757;52.258;12.840;2022-08-21T11:55:52;2.97;;;1.83;;
7460;SDS011;6757;52.258;12.840;2022-08-21T11:58:25;3.08;;;1.92;;
7460;SDS011;6757;52.258;12.840;2022-08-21T12:00:57;3.78;;;1.80;;
7460;SDS011;6757;52.258;12.840;2022-08-21T12:05:57;3.60;;;1.90;;
7460;SDS011;6757;52.258;12.840;2022-08-21T12:08:29;3.13;;;1.90;;
7460;SDS011;6757;52.258;12.840;2022-08-21T12:11:01;1.73;;;1.63;;
7460;SDS011;6757;52.258;12.840;2022-08-21T12:13:34;5.07;;;1.90;;
7460;SDS011;6757;52.258;12.840;2022-08-21T12:16:07;2.05;;;1.75;;
7460;SDS011;6757;52.258;12.840;2022-08-21T12:18:37;2.00;;;1.73;;
7460;SDS011;6757;52.258;12.840;2022-08-21T12:21:05;3.08;;;1.98;;
7460;SDS011;6757;52.258;12.840;2022-08-21T12:23:49;2.78;;;1.90;;
7460;SDS011;6757;52.258;12.840;2022-08-21T12:26:32;2.83;;;1.90;;
7460;SDS011;6757;52.258;12.840;2022-08-21T12:29:11;2.60;;;1.83;;
7460;SDS011;6757;52.258;12.840;2022-08-21T12:31:50;1.80;;;1.65;;
7460;SDS011;6757;52.258;12.840;2022-08-21T12:34:27;2.30;;;1.48;;
7460;SDS011;6757;52.258;12.840;2022-08-21T12:39:33;3.50;;;1.67;;
7460;SDS011;6757;52.258;12.840;2022-08-21T12:42:05;2.25;;;1.38;;
7460;SDS011;6757;52.258;12.840;2022-08-21T12:44:43;2.08;;;1.60;;
7460;SDS011;6757;52.258;12.840;2022-08-21T12:47:14;3.38;;;1.90;;
7460;SDS011;6757;52.258;12.840;2022-08-21T12:49:47;3.08;;;1.83;;
7460;SDS011;6757;52.258;12.840;2022-08-21T12:52:22;1.65;;;1.42;;
7460;SDS011;6757;52.258;12.840;2022-08-21T12:54:56;2.03;;;1.63;;
7460;SDS011;6757;52.258;12.840;2022-08-21T12:57:23;1.92;;;1.38;;
7460;SDS011;6757;52.258;12.840;2022-08-21T12:59:54;3.50;;;1.75;;
7460;SDS011;6757;52.258;12.840;2022-08-21T13:02:23;2.30;;;1.90;;
7460;SDS011;6757;52.258;12.840;2022-08-21T13:04:55;3.40;;;1.83;;
7460;SDS011;6757;52.258;12.840;2022-08-21T13:07:25;3.00;;;1.90;;
7460;SDS011;6757;52.258;12.840;2022-08-21T13:09:59;2.75;;;1.80;;
7460;SDS011;6757;52.258;12.840;2022-08-21T13:12:30;3.08;;;1.70;;
7460;SDS011;6757;52.258;12.840;2022-08-21T13:15:00;3.30;;;1.98;;
7460;SDS011;6757;52.258;12.840;2022-08-21T13:17:32;3.08;;;1.92;;
7460;SDS011;6757;52.258;12.840;2022-08-21T13:20:06;2.58;;;1.88;;
7460;SDS011;6757;52.258;12.840;2022-08-21T13:22:40;2.75;;;1.90;;
7460;SDS011;6757;52.258;12.840;2022-08-21T13:25:11;4.45;;;1.90;;
7460;SDS011;6757;52.258;12.840;2022-08-21T13:27:41;2.75;;;2.03;;
7460;SDS011;6757;52.258;12.840;2022-08-21T13:30:14;2.38;;;1.92;;
7460;SDS011;6757;52.258;12.840;2022-08-21T13:32:47;3.72;;;2.10;;
7460;SDS011;6757;52.258;12.840;2022-08-21T13:37:48;3.25;;;2.13;;
7460;SDS011;6757;52.258;12.840;2022-08-21T13:40:19;4.00;;;2.22;;
7460;SDS011;6757;52.258;12.840;2022-08-21T13:42:51;4.35;;;2.20;;
7460;SDS011;6757;52.258;12.840;2022-08-21T13:45:22;3.03;;;2.22;;
7460;SDS011;6757;52.258;12.840;2022-08-21T13:47:51;2.20;;;1.88;;
7460;SDS011;6757;52.258;12.840;2022-08-21T13:50:20;2.08;;;1.85;;
7460;SDS011;6757;52.258;12.840;2022-08-21T13:52:55;2.97;;;1.75;;
7460;SDS011;6757;52.258;12.840;2022-08-21T13:55:33;2.03;;;1.70;;
7460;SDS011;6757;52.258;12.840;2022-08-21T13:58:03;2.80;;;1.88;;
7460;SDS011;6757;52.258;12.840;2022-08-21T14:00:32;2.80;;;1.42;;
7460;SDS011;6757;52.258;12.840;2022-08-21T14:03:04;2.78;;;2.00;;
7460;SDS011;6757;52.258;12.840;2022-08-21T14:05:35;2.13;;;1.80;;
7460;SDS011;6757;52.258;12.840;2022-08-21T14:08:10;3.67;;;1.83;;
7460;SDS011;6757;52.258;12.840;2022-08-21T14:10:43;3.10;;;2.20;;
7460;SDS011;6757;52.258;12.840;2022-08-21T14:13:24;4.95;;;2.03;;
7460;SDS011;6757;52.258;12.840;2022-08-21T14:16:02;3.22;;;1.77;;
7460;SDS011;6757;52.258;12.840;2022-08-21T14:18:43;4.25;;;2.00;;
7460;SDS011;6757;52.258;12.840;2022-08-21T14:21:30;1.73;;;1.52;;
7460;SDS011;6757;52.258;12.840;2022-08-21T14:24:04;1.95;;;1.80;;
7460;SDS011;6757;52.258;12.840;2022-08-21T14:26:42;4.40;;;1.80;;
7460;SDS011;6757;52.258;12.840;2022-08-21T14:29:14;3.75;;;2.00;;
7460;SDS011;6757;52.258;12.840;2022-08-21T14:31:48;2.08;;;1.83;;
7460;SDS011;6757;52.258;12.840;2022-08-21T14:34:17;3.67;;;2.00;;
7460;SDS011;6757;52.258;12.840;2022-08-21T14:36:45;4.72;;;1.90;;
7460;SDS011;6757;52.258;12.840;2022-08-21T14:39:14;3.05;;;2.00;;
7460;SDS011;6757;52.258;12.840;2022-08-21T14:41:42;5.65;;;2.40;;
7460;SDS011;6757;52.258;12.840;2022-08-21T14:44:13;4.60;;;2.03;;
7460;SDS011;6757;52.258;12.840;2022-08-21T14:46:42;3.72;;;2.20;;
7460;SDS011;6757;52.258;12.840;2022-08-21T14:49:09;3.58;;;1.80;;
7460;SDS011;6757;52.258;12.840;2022-08-21T14:51:36;2.45;;;1.80;;
7460;SDS011;6757;52.258;12.840;2022-08-21T14:54:04;2.00;;;1.90;;
7460;SDS011;6757;52.258;12.840;2022-08-21T14:56:31;2.80;;;2.00;;
7460;SDS011;6757;52.258;12.840;2022-08-21T14:59:02;3.65;;;2.10;;
7460;SDS011;6757;52.258;12.840;2022-08-21T15:01:34;5.07;;;2.20;;
7460;SDS011;6757;52.258;12.840;2022-08-21T15:04:03;3.85;;;2.00;;
7460;SDS011;6757;52.258;12.840;2022-08-21T15:06:30;4.45;;;1.90;;
7460;SDS011;6757;52.258;12.840;2022-08-21T15:08:57;2.83;;;2.00;;
7460;SDS011;6757;52.258;12.840;2022-08-21T15:11:24;4.28;;;2.47;;
7460;SDS011;6757;52.258;12.840;2022-08-21T15:13:55;2.83;;;1.80;;
7460;SDS011;6757;52.258;12.840;2022-08-21T15:16:27;3.28;;;2.20;;
7460;SDS011;6757;52.258;12.840;2022-08-21T15:18:56;4.03;;;2.20;;
7460;SDS011;6757;52.258;12.840;2022-08-21T15:21:23;4.43;;;2.53;;
7460;SDS011;6757;52.258;12.840;2022-08-21T15:23:50;3.83;;;2.05;;
7460;SDS011;6757;52.258;12.840;2022-08-21T15:26:17;2.88;;;1.92;;
7460;SDS011;6757;52.258;12.840;2022-08-21T15:28:45;3.97;;;1.90;;
7460;SDS011;6757;52.258;12.840;2022-08-21T15:31:12;2.53;;;1.90;;
7460;SDS011;6757;52.258;12.840;2022-08-21T15:33:40;2.10;;;1.90;;